Time;durP1;ratioP1;P1;durP2;ratioP2;P2;SDS_P1;SDS_P2;PMS_P1;PMS_P2;Temp;Humidity;BMP_temperature;BMP_pressure;BME280_temperature;BME280_humidity;BME280_pressure;Samples;Min_cycle;Max_cycle;Signal;HPM_P1;HPM_P2
2021/05/10 00:01:09;;;;;;;;;;;18.10;99.90;;;;;;4995770;28;20329;-69
2021/05/10 00:03:35;;;;;;;;;;;18.20;99.90;;;;;;5013594;28;19971;-69
2021/05/10 00:06:02;;;;;;;;;;;18.20;99.90;;;;;;5013390;28;20303;-69
2021/05/10 00:08:29;;;;;;;;;;;18.30;99.90;;;;;;5013378;28;19916;-69
2021/05/10 00:10:55;;;;;;;;;;;18.30;99.90;;;;;;5013361;28;19916;-69
2021/05/10 00:13:23;;;;;;;;;;;18.40;99.90;;;;;;5013233;28;19910;-69
2021/05/10 00:15:50;;;;;;;;;;;18.40;99.90;;;;;;5013414;28;19909;-69
2021/05/10 00:18:17;;;;;;;;;;;18.40;99.90;;;;;;5013219;28;19956;-67
2021/05/10 00:20:45;;;;;;;;;;;18.50;99.90;;;;;;5013210;28;19996;-69
2021/05/10 00:23:12;;;;;;;;;;;18.60;99.90;;;;;;5013254;28;19909;-69
2021/05/10 00:25:39;;;;;;;;;;;18.60;99.90;;;;;;5000890;28;19945;-71
2021/05/10 00:28:06;;;;;;;;;;;18.70;99.90;;;;;;5011998;28;20292;-68
2021/05/10 00:30:33;;;;;;;;;;;18.80;99.90;;;;;;5012343;28;19948;-68
2021/05/10 00:33:00;;;;;;;;;;;18.80;99.90;;;;;;5011903;28;20028;-69
2021/05/10 00:35:27;;;;;;;;;;;18.90;99.90;;;;;;5012818;28;19941;-69
2021/05/10 00:37:55;;;;;;;;;;;18.90;99.90;;;;;;5013538;28;19910;-71
2021/05/10 00:40:24;;;;;;;;;;;19.00;99.90;;;;;;5015360;28;19917;-68
2021/05/10 00:42:51;;;;;;;;;;;19.00;99.90;;;;;;5014062;28;19921;-68
2021/05/10 00:45:18;;;;;;;;;;;19.10;99.90;;;;;;5013429;28;19917;-71
2021/05/10 00:47:45;;;;;;;;;;;19.10;99.90;;;;;;5012889;28;19913;-70
2021/05/10 00:50:12;;;;;;;;;;;19.20;99.90;;;;;;5014478;28;19910;-71
2021/05/10 00:52:39;;;;;;;;;;;19.20;99.90;;;;;;4998512;28;19910;-70
2021/05/10 00:55:07;;;;;;;;;;;19.20;99.90;;;;;;5016736;28;19956;-70
2021/05/10 00:57:36;;;;;;;;;;;19.30;99.90;;;;;;5016755;28;19910;-71
2021/05/10 01:00:04;;;;;;;;;;;19.30;99.90;;;;;;5016687;28;19910;-69
2021/05/10 01:02:31;;;;;;;;;;;19.50;99.90;;;;;;5016724;28;19913;-69
2021/05/10 01:04:57;;;;;;;;;;;19.80;99.90;;;;;;5016400;28;19961;-69
2021/05/10 01:07:24;;;;;;;;;;;20.00;99.90;;;;;;5016784;28;19917;-69
2021/05/10 01:09:51;;;;;;;;;;;20.30;99.90;;;;;;5016594;28;19917;-69
2021/05/10 01:12:18;;;;;;;;;;;20.60;99.90;;;;;;5016362;28;19909;-68
2021/05/10 01:14:44;;;;;;;;;;;20.90;99.90;;;;;;5016342;28;19917;-69
2021/05/10 01:17:11;;;;;;;;;;;21.20;99.90;;;;;;4999107;28;20379;-70
2021/05/10 01:19:38;;;;;;;;;;;21.40;99.90;;;;;;5016650;28;19910;-69
2021/05/10 01:22:05;;;;;;;;;;;21.50;99.90;;;;;;5016442;28;19910;-70
2021/05/10 01:24:32;;;;;;;;;;;21.40;99.50;;;;;;4998566;28;20036;-70
2021/05/10 01:26:59;;;;;;;;;;;21.10;99.80;;;;;;5015777;28;19916;-70
2021/05/10 01:29:26;;;;;;;;;;;21.00;99.90;;;;;;5016369;28;19909;-69
2021/05/10 01:31:53;;;;;;;;;;;20.90;99.90;;;;;;5016370;28;20407;-69
2021/05/10 01:34:19;;;;;;;;;;;20.80;99.90;;;;;;4998553;28;19910;-69
2021/05/10 01:36:47;;;;;;;;;;;20.70;99.30;;;;;;5015817;28;19913;-70
2021/05/10 01:39:14;;;;;;;;;;;20.70;99.20;;;;;;5015929;28;20008;-68
2021/05/10 01:41:40;;;;;;;;;;;20.70;99.40;;;;;;4994889;28;19949;-70
2021/05/10 01:44:07;;;;;;;;;;;20.70;99.90;;;;;;4996423;28;19972;-69
2021/05/10 01:46:34;;;;;;;;;;;20.70;99.90;;;;;;4996255;28;20002;-68
2021/05/10 01:49:02;;;;;;;;;;;20.70;99.20;;;;;;4996088;28;19910;-71
2021/05/10 01:51:28;;;;;;;;;;;20.70;99.10;;;;;;4996298;28;20353;-70
2021/05/10 01:53:55;;;;;;;;;;;20.70;98.50;;;;;;4996075;28;19910;-69
2021/05/10 01:56:22;;;;;;;;;;;20.80;98.30;;;;;;4995976;28;19955;-68
2021/05/10 01:58:52;;;;;;;;;;;20.80;98.60;;;;;;4986825;28;19913;-68
2021/05/10 02:01:19;;;;;;;;;;;20.90;98.30;;;;;;4975908;28;19910;-68
2021/05/10 02:03:45;;;;;;;;;;;20.80;98.50;;;;;;4975855;28;19926;-69
2021/05/10 02:06:12;;;;;;;;;;;20.90;97.50;;;;;;4976049;28;20426;-68
2021/05/10 02:08:39;;;;;;;;;;;20.80;97.50;;;;;;4976042;28;20230;-68
2021/05/10 02:11:06;;;;;;;;;;;20.70;97.60;;;;;;4976154;28;19914;-68
2021/05/10 02:13:34;;;;;;;;;;;20.70;98.20;;;;;;4976887;28;19921;-70
2021/05/10 02:16:02;;;;;;;;;;;20.60;98.10;;;;;;4975761;28;19910;-70
2021/05/10 02:18:34;;;;;;;;;;;20.70;98.00;;;;;;4987180;28;19910;-70
2021/05/10 02:21:01;;;;;;;;;;;20.50;97.80;;;;;;4995754;28;20261;-70
2021/05/10 02:23:32;;;;;;;;;;;20.60;98.00;;;;;;4994189;28;20280;-71
2021/05/10 02:26:01;;;;;;;;;;;20.70;98.00;;;;;;4995664;28;19913;-69
2021/05/10 02:28:29;;;;;;;;;;;20.90;98.30;;;;;;4994196;28;19952;-71
2021/05/10 02:30:57;;;;;;;;;;;21.10;97.50;;;;;;4994046;28;19953;-71
2021/05/10 02:33:25;;;;;;;;;;;21.10;97.40;;;;;;4995394;28;19910;-70
2021/05/10 02:35:53;;;;;;;;;;;21.10;97.30;;;;;;4995304;28;19951;-71
2021/05/10 02:38:20;;;;;;;;;;;21.10;97.60;;;;;;4995355;28;20262;-70
2021/05/10 02:40:48;;;;;;;;;;;21.20;97.50;;;;;;4994768;28;19917;-70
2021/05/10 02:43:15;;;;;;;;;;;21.20;97.40;;;;;;5011947;28;20000;-68
2021/05/10 02:45:43;;;;;;;;;;;21.20;97.90;;;;;;5014792;28;19917;-70
2021/05/10 02:48:09;;;;;;;;;;;21.10;98.30;;;;;;5014563;28;19960;-68
2021/05/10 02:50:36;;;;;;;;;;;21.10;98.30;;;;;;5014360;28;19913;-69
2021/05/10 02:53:03;;;;;;;;;;;21.00;98.00;;;;;;5007454;28;19918;-70
2021/05/10 02:55:30;;;;;;;;;;;21.00;98.20;;;;;;4998127;28;19917;-70
2021/05/10 02:57:57;;;;;;;;;;;21.10;98.50;;;;;;4993024;28;19910;-68
2021/05/10 03:00:25;;;;;;;;;;;20.90;99.00;;;;;;4994194;28;20004;-69
2021/05/10 03:02:52;;;;;;;;;;;21.00;98.60;;;;;;4993783;28;19910;-70
2021/05/10 03:05:19;;;;;;;;;;;21.00;98.90;;;;;;4994007;28;19925;-69
2021/05/10 03:07:46;;;;;;;;;;;21.00;98.70;;;;;;4994074;28;19913;-69
2021/05/10 03:10:14;;;;;;;;;;;21.00;98.80;;;;;;4994127;28;19945;-71
2021/05/10 03:12:41;;;;;;;;;;;21.00;98.20;;;;;;4993447;28;19993;-69
2021/05/10 03:15:09;;;;;;;;;;;21.10;97.90;;;;;;4994084;28;19932;-69
2021/05/10 03:17:36;;;;;;;;;;;21.20;97.80;;;;;;4993744;28;19968;-69
2021/05/10 03:20:07;;;;;;;;;;;21.10;98.30;;;;;;4993798;28;20336;-70
2021/05/10 03:22:33;;;;;;;;;;;21.30;97.70;;;;;;4993894;28;20416;-70
2021/05/10 03:25:00;;;;;;;;;;;21.20;97.80;;;;;;4993332;28;20016;-70
2021/05/10 03:27:27;;;;;;;;;;;21.10;98.10;;;;;;4993706;28;19910;-71
2021/05/10 03:29:53;;;;;;;;;;;21.20;98.00;;;;;;4993768;28;20004;-70
2021/05/10 03:32:20;;;;;;;;;;;21.30;98.20;;;;;;4994104;28;19914;-70
2021/05/10 03:34:47;;;;;;;;;;;21.40;97.60;;;;;;4994682;28;19918;-69
2021/05/10 03:37:13;;;;;;;;;;;21.20;98.00;;;;;;4994663;28;20364;-71
2021/05/10 03:39:40;;;;;;;;;;;21.20;97.90;;;;;;4976057;28;20392;-72
2021/05/10 03:42:07;;;;;;;;;;;21.30;98.30;;;;;;4993285;28;20000;-70
2021/05/10 03:44:34;;;;;;;;;;;21.20;98.70;;;;;;4993534;28;19924;-71
2021/05/10 03:47:00;;;;;;;;;;;21.20;99.30;;;;;;4992910;28;20915;-70
2021/05/10 03:49:27;;;;;;;;;;;21.20;98.40;;;;;;4993301;28;19910;-70
2021/05/10 03:51:53;;;;;;;;;;;21.20;98.40;;;;;;4993517;28;19965;-70
2021/05/10 03:54:20;;;;;;;;;;;21.30;98.00;;;;;;4995016;28;20429;-70
2021/05/10 03:56:48;;;;;;;;;;;21.30;98.50;;;;;;4994609;28;19910;-70
2021/05/10 03:59:14;;;;;;;;;;;21.40;97.40;;;;;;4994787;28;19910;-70
2021/05/10 04:01:41;;;;;;;;;;;21.40;97.70;;;;;;4995934;28;19963;-71
2021/05/10 04:04:24;;;;;;;;;;;21.50;97.20;;;;;;4998909;28;19914;-70
2021/05/10 04:07:15;;;;;;;;;;;21.50;96.60;;;;;;4995850;28;19910;-71
2021/05/10 04:15:00;;;;;;;;;;;21.50;96.30;;;;;;5020391;28;19940;-69
2021/05/10 04:17:26;;;;;;;;;;;21.50;95.50;;;;;;5025491;28;19936;-69
2021/05/10 04:19:53;;;;;;;;;;;21.50;94.90;;;;;;5027210;28;19909;-70
2021/05/10 04:22:19;;;;;;;;;;;21.50;94.20;;;;;;5020668;28;19909;-69
2021/05/10 04:24:48;;;;;;;;;;;21.50;93.50;;;;;;5011998;28;19925;-69
2021/05/10 04:27:15;;;;;;;;;;;21.50;92.90;;;;;;4995488;28;19910;-69
2021/05/10 04:29:42;;;;;;;;;;;21.50;93.30;;;;;;5013061;28;20257;-68
2021/05/10 04:32:08;;;;;;;;;;;21.50;93.00;;;;;;5013186;28;19910;-70
2021/05/10 04:34:35;;;;;;;;;;;21.60;92.90;;;;;;5012892;28;19917;-69
2021/05/10 04:37:01;;;;;;;;;;;21.60;93.00;;;;;;5012854;28;20025;-69
2021/05/10 04:39:28;;;;;;;;;;;21.60;93.20;;;;;;5013025;28;19930;-69
2021/05/10 04:41:55;;;;;;;;;;;21.70;92.60;;;;;;5012734;28;19917;-69
2021/05/10 04:44:21;;;;;;;;;;;21.70;92.50;;;;;;5012928;28;19918;-68
2021/05/10 04:46:48;;;;;;;;;;;21.60;92.70;;;;;;5012782;28;19909;-68
2021/05/10 04:49:15;;;;;;;;;;;21.50;92.60;;;;;;5012794;28;20305;-70
2021/05/10 04:51:41;;;;;;;;;;;21.50;93.50;;;;;;5013018;28;20429;-70
2021/05/10 04:54:08;;;;;;;;;;;21.60;93.20;;;;;;5012866;28;19910;-68
2021/05/10 04:56:35;;;;;;;;;;;21.60;92.90;;;;;;5012702;28;19909;-68
2021/05/10 04:59:01;;;;;;;;;;;21.70;92.60;;;;;;5012817;28;19913;-68
2021/05/10 05:01:28;;;;;;;;;;;21.60;93.40;;;;;;5013016;28;19937;-68
2021/05/10 05:03:55;;;;;;;;;;;21.60;93.40;;;;;;5013829;28;19917;-68
2021/05/10 05:06:21;;;;;;;;;;;21.60;91.90;;;;;;5013880;28;19914;-70
2021/05/10 05:08:48;;;;;;;;;;;21.60;92.30;;;;;;5012818;28;19916;-71
2021/05/10 05:11:14;;;;;;;;;;;21.70;91.70;;;;;;5012576;28;19979;-70
2021/05/10 05:13:41;;;;;;;;;;;21.70;91.90;;;;;;4995218;28;19916;-69
2021/05/10 05:16:08;;;;;;;;;;;21.80;91.50;;;;;;5012664;28;19995;-70
2021/05/10 05:18:35;;;;;;;;;;;21.80;91.50;;;;;;5012638;28;20452;-71
2021/05/10 05:21:01;;;;;;;;;;;21.80;91.30;;;;;;5012159;28;20280;-69
2021/05/10 05:23:28;;;;;;;;;;;21.80;91.70;;;;;;5012359;28;19910;-70
2021/05/10 05:25:58;;;;;;;;;;;21.70;91.60;;;;;;5005272;28;19979;-68
2021/05/10 05:28:26;;;;;;;;;;;21.70;92.10;;;;;;4992400;28;20289;-69
2021/05/10 05:30:55;;;;;;;;;;;21.60;92.10;;;;;;4974713;28;19953;-71
2021/05/10 05:33:23;;;;;;;;;;;21.50;92.40;;;;;;4992416;28;19945;-71
2021/05/10 05:35:51;;;;;;;;;;;21.50;92.70;;;;;;4993454;28;20283;-71
2021/05/10 05:38:17;;;;;;;;;;;21.40;93.10;;;;;;4995954;28;20265;-70
2021/05/10 05:40:45;;;;;;;;;;;21.50;92.10;;;;;;5012341;28;19910;-71
2021/05/10 05:43:12;;;;;;;;;;;21.60;91.40;;;;;;5015807;28;19926;-70
2021/05/10 05:45:41;;;;;;;;;;;21.60;91.40;;;;;;5015910;28;19921;-70
2021/05/10 05:48:09;;;;;;;;;;;21.60;91.50;;;;;;5015526;28;19916;-71
2021/05/10 05:50:36;;;;;;;;;;;21.60;91.80;;;;;;5015590;28;19920;-71
2021/05/10 05:53:03;;;;;;;;;;;21.50;91.80;;;;;;5015487;28;20368;-70
2021/05/10 05:55:30;;;;;;;;;;;21.40;91.70;;;;;;5015594;28;19909;-70
2021/05/10 05:57:57;;;;;;;;;;;21.40;91.40;;;;;;5015853;28;20008;-70
2021/05/10 06:00:24;;;;;;;;;;;21.30;91.90;;;;;;5015854;28;19917;-71
2021/05/10 06:02:51;;;;;;;;;;;21.20;91.60;;;;;;5015198;28;20004;-70
2021/05/10 06:05:17;;;;;;;;;;;21.20;91.70;;;;;;5015377;28;19981;-70
2021/05/10 06:07:48;;;;;;;;;;;21.10;92.50;;;;;;5015447;28;19964;-70
2021/05/10 06:10:18;;;;;;;;;;;21.00;92.50;;;;;;5015381;28;20391;-70
2021/05/10 06:12:48;;;;;;;;;;;20.90;92.40;;;;;;5015057;28;19916;-71
2021/05/10 06:15:15;;;;;;;;;;;20.80;92.50;;;;;;5015607;28;19909;-69
2021/05/10 06:17:42;;;;;;;;;;;20.80;92.40;;;;;;5015261;28;20268;-70
2021/05/10 06:20:10;;;;;;;;;;;20.70;92.30;;;;;;5015315;28;19921;-68
2021/05/10 06:22:39;;;;;;;;;;;20.70;92.80;;;;;;5015329;28;19968;-69
2021/05/10 06:25:12;;;;;;;;;;;20.70;92.70;;;;;;5015003;28;20356;-69
2021/05/10 06:27:39;;;;;;;;;;;20.60;92.70;;;;;;5015137;28;20352;-70
2021/05/10 06:30:07;;;;;;;;;;;20.50;92.80;;;;;;5015393;28;19924;-69
2021/05/10 06:32:34;;;;;;;;;;;20.50;93.00;;;;;;5017253;28;19916;-69
2021/05/10 06:35:00;;;;;;;;;;;20.50;93.20;;;;;;5017830;28;20427;-69
2021/05/10 06:37:30;;;;;;;;;;;20.40;93.50;;;;;;5015574;28;19909;-72
2021/05/10 06:39:57;;;;;;;;;;;20.40;93.60;;;;;;5014721;28;19917;-70
2021/05/10 06:42:23;;;;;;;;;;;20.40;93.40;;;;;;5014901;28;19936;-71
2021/05/10 06:44:50;;;;;;;;;;;20.30;94.00;;;;;;5014416;28;19918;-70
2021/05/10 06:47:20;;;;;;;;;;;20.30;93.60;;;;;;5013219;28;20488;-71
2021/05/10 06:49:47;;;;;;;;;;;20.20;93.50;;;;;;5014963;28;20394;-71
2021/05/10 06:52:13;;;;;;;;;;;20.30;93.20;;;;;;5014356;28;19917;-69
2021/05/10 06:54:40;;;;;;;;;;;20.20;93.20;;;;;;5014402;28;19909;-70
2021/05/10 06:57:07;;;;;;;;;;;20.20;93.30;;;;;;5014537;28;20395;-70
2021/05/10 06:59:33;;;;;;;;;;;20.20;93.20;;;;;;5014712;28;19953;-71
2021/05/10 07:02:00;;;;;;;;;;;20.20;93.60;;;;;;5014473;28;19916;-71
2021/05/10 07:04:27;;;;;;;;;;;20.10;93.60;;;;;;5014505;28;19918;-71
2021/05/10 07:06:54;;;;;;;;;;;20.10;93.90;;;;;;5014006;28;19958;-70
2021/05/10 07:09:21;;;;;;;;;;;20.10;94.00;;;;;;5013450;28;19932;-70
2021/05/10 07:11:48;;;;;;;;;;;20.00;94.20;;;;;;4996024;28;19944;-71
2021/05/10 07:14:15;;;;;;;;;;;20.00;94.20;;;;;;5013876;28;20256;-70
2021/05/10 07:16:42;;;;;;;;;;;19.90;94.30;;;;;;5014086;28;19910;-71
2021/05/10 07:19:09;;;;;;;;;;;19.90;94.40;;;;;;5014023;28;20275;-70
2021/05/10 07:21:37;;;;;;;;;;;19.80;94.40;;;;;;5014245;28;19974;-69
2021/05/10 07:24:04;;;;;;;;;;;19.80;94.60;;;;;;5012898;28;20272;-69
2021/05/10 07:26:31;;;;;;;;;;;19.80;94.60;;;;;;5014104;28;19913;-71
2021/05/10 07:28:57;;;;;;;;;;;19.80;94.50;;;;;;5013765;28;19952;-70
2021/05/10 07:31:24;;;;;;;;;;;19.80;94.60;;;;;;5013974;28;19910;-71
2021/05/10 07:33:51;;;;;;;;;;;19.70;94.70;;;;;;5013798;28;19949;-71
2021/05/10 07:36:18;;;;;;;;;;;19.70;94.90;;;;;;5013907;28;20013;-69
2021/05/10 07:38:44;;;;;;;;;;;19.60;94.80;;;;;;5013680;28;20048;-68
2021/05/10 07:41:14;;;;;;;;;;;19.60;94.90;;;;;;5011611;28;19913;-70
2021/05/10 07:43:42;;;;;;;;;;;19.60;95.30;;;;;;5011875;28;20631;-69
2021/05/10 07:46:08;;;;;;;;;;;19.50;95.30;;;;;;5011790;28;20006;-69
2021/05/10 07:48:35;;;;;;;;;;;19.40;95.30;;;;;;5011759;28;19917;-68
2021/05/10 07:51:02;;;;;;;;;;;19.40;95.80;;;;;;4991921;28;20013;-68
2021/05/10 07:53:29;;;;;;;;;;;19.40;96.30;;;;;;4992495;28;19949;-68
2021/05/10 07:55:56;;;;;;;;;;;19.30;96.40;;;;;;4991786;28;19914;-69
2021/05/10 07:58:25;;;;;;;;;;;19.30;96.60;;;;;;4991396;28;20353;-68
2021/05/10 08:00:58;;;;;;;;;;;19.20;97.30;;;;;;4991884;28;20222;-71
2021/05/10 08:03:26;;;;;;;;;;;19.20;97.50;;;;;;4992037;28;19950;-70
2021/05/10 08:05:53;;;;;;;;;;;19.10;97.70;;;;;;4992400;28;19925;-71
2021/05/10 08:08:24;;;;;;;;;;;19.10;98.20;;;;;;4990673;28;19964;-70
2021/05/10 08:10:51;;;;;;;;;;;19.00;98.20;;;;;;4991755;28;19932;-69
2021/05/10 08:13:18;;;;;;;;;;;19.00;98.70;;;;;;4991799;28;20341;-73
2021/05/10 08:15:45;;;;;;;;;;;19.00;99.30;;;;;;4991574;28;19949;-70
2021/05/10 08:18:14;;;;;;;;;;;18.90;99.90;;;;;;4990585;28;19910;-70
2021/05/10 08:20:42;;;;;;;;;;;18.90;99.80;;;;;;4991931;28;19952;-70
2021/05/10 08:23:09;;;;;;;;;;;18.80;99.60;;;;;;4992075;28;19964;-69
2021/05/10 08:25:36;;;;;;;;;;;18.80;99.80;;;;;;4991563;28;20326;-68
2021/05/10 08:28:04;;;;;;;;;;;18.80;99.90;;;;;;4991449;28;20016;-70
2021/05/10 08:30:30;;;;;;;;;;;18.80;99.90;;;;;;4991748;28;19914;-69
2021/05/10 08:32:58;;;;;;;;;;;18.80;99.90;;;;;;4991490;28;20355;-69
2021/05/10 08:35:25;;;;;;;;;;;18.70;99.90;;;;;;4991845;28;19952;-70
2021/05/10 08:37:52;;;;;;;;;;;18.70;99.90;;;;;;4991947;28;19910;-70
2021/05/10 08:40:19;;;;;;;;;;;18.70;99.90;;;;;;4991396;28;19924;-71
2021/05/10 08:42:46;;;;;;;;;;;18.70;99.90;;;;;;4991414;28;20535;-71
2021/05/10 08:45:23;;;;;;;;;;;18.70;99.90;;;;;;4991284;28;20008;-71
2021/05/10 08:47:51;;;;;;;;;;;18.60;99.90;;;;;;4991476;28;19910;-71
2021/05/10 08:50:18;;;;;;;;;;;18.60;99.90;;;;;;4991836;28;20007;-73
2021/05/10 08:52:45;;;;;;;;;;;18.60;99.90;;;;;;4989769;28;19910;-72
2021/05/10 08:55:16;;;;;;;;;;;18.60;99.90;;;;;;4990378;28;20258;-73
2021/05/10 08:57:43;;;;;;;;;;;18.60;99.90;;;;;;4989953;28;19921;-73
2021/05/10 09:00:14;;;;;;;;;;;18.60;99.90;;;;;;4991230;28;19913;-71
2021/05/10 09:02:41;;;;;;;;;;;18.60;99.90;;;;;;4991201;28;20276;-72
2021/05/10 09:05:17;;;;;;;;;;;18.70;99.90;;;;;;4991329;28;20407;-72
2021/05/10 09:07:45;;;;;;;;;;;18.70;99.90;;;;;;4993233;28;19910;-72
2021/05/10 09:10:14;;;;;;;;;;;18.70;99.90;;;;;;4992589;28;19914;-72
2021/05/10 09:12:44;;;;;;;;;;;18.70;99.90;;;;;;4996915;28;19910;-71
2021/05/10 09:15:27;;;;;;;;;;;18.70;99.90;;;;;;4996963;28;19910;-72
2021/05/10 09:17:54;;;;;;;;;;;18.70;99.90;;;;;;4996607;28;20383;-70
2021/05/10 09:20:22;;;;;;;;;;;18.60;99.90;;;;;;4996704;28;19910;-70
2021/05/10 09:22:49;;;;;;;;;;;18.60;99.90;;;;;;4996633;28;19981;-70
2021/05/10 09:25:16;;;;;;;;;;;18.60;99.90;;;;;;4996530;28;20280;-70
2021/05/10 09:27:43;;;;;;;;;;;18.50;99.90;;;;;;4997611;28;19913;-70
2021/05/10 09:30:13;;;;;;;;;;;18.40;99.90;;;;;;4998689;28;20283;-70
2021/05/10 09:32:40;;;;;;;;;;;18.40;99.90;;;;;;4998165;28;19949;-73
2021/05/10 09:35:18;;;;;;;;;;;18.40;99.90;;;;;;4996782;28;19909;-72
2021/05/10 09:37:52;;;;;;;;;;;18.30;99.90;;;;;;4996646;28;20320;-72
2021/05/10 09:40:19;;;;;;;;;;;18.30;99.90;;;;;;4996142;28;20012;-72
2021/05/10 09:42:53;;;;;;;;;;;18.20;99.90;;;;;;4996098;28;20445;-73
2021/05/10 09:45:30;;;;;;;;;;;18.30;99.90;;;;;;4996627;28;19917;-73
2021/05/10 09:48:07;;;;;;;;;;;18.40;99.90;;;;;;4997166;28;19956;-73
2021/05/10 09:50:34;;;;;;;;;;;18.40;99.90;;;;;;4997586;28;19917;-73
2021/05/10 09:53:02;;;;;;;;;;;18.40;99.90;;;;;;5003968;28;19920;-71
2021/05/10 09:55:45;;;;;;;;;;;18.40;99.90;;;;;;5010856;28;19944;-72
2021/05/10 09:58:12;;;;;;;;;;;18.40;99.90;;;;;;5011679;28;19997;-70
2021/05/10 10:00:39;;;;;;;;;;;18.40;99.90;;;;;;5011069;28;20000;-72
2021/05/10 10:03:06;;;;;;;;;;;18.40;99.90;;;;;;5010219;28;19922;-71
2021/05/10 10:05:33;;;;;;;;;;;18.40;99.90;;;;;;5010997;28;19957;-73
2021/05/10 10:08:01;;;;;;;;;;;18.40;99.90;;;;;;5011074;28;19910;-71
2021/05/10 10:10:28;;;;;;;;;;;18.30;99.90;;;;;;5009873;28;19909;-74
2021/05/10 10:12:54;;;;;;;;;;;18.20;99.90;;;;;;5007744;28;19972;-71
2021/05/10 10:15:21;;;;;;;;;;;18.20;99.90;;;;;;5008534;28;19910;-73
2021/05/10 10:17:48;;;;;;;;;;;18.10;99.90;;;;;;5008911;28;19920;-73
2021/05/10 10:20:14;;;;;;;;;;;18.10;99.90;;;;;;5003044;28;19972;-73
2021/05/10 10:22:41;;;;;;;;;;;18.10;99.90;;;;;;4997353;28;19941;-72
2021/05/10 10:25:09;;;;;;;;;;;18.20;99.90;;;;;;4995423;28;20348;-71
2021/05/10 10:27:36;;;;;;;;;;;18.20;99.90;;;;;;4995765;28;19910;-73
2021/05/10 10:30:03;;;;;;;;;;;18.30;99.90;;;;;;4995680;28;19921;-73
2021/05/10 10:32:31;;;;;;;;;;;18.40;99.90;;;;;;4995823;28;20342;-71
2021/05/10 10:34:58;;;;;;;;;;;18.40;99.90;;;;;;4995442;28;19910;-71
2021/05/10 10:37:25;;;;;;;;;;;18.40;99.90;;;;;;4995550;28;19917;-72
2021/05/10 10:39:53;;;;;;;;;;;18.50;99.90;;;;;;4995637;28;19917;-73
2021/05/10 10:42:30;;;;;;;;;;;18.50;99.90;;;;;;4994660;28;19922;-72
2021/05/10 10:44:57;;;;;;;;;;;18.40;99.90;;;;;;4995166;28;19918;-71
2021/05/10 10:47:43;;;;;;;;;;;18.40;99.90;;;;;;4995361;28;20003;-73
2021/05/10 10:50:10;;;;;;;;;;;18.40;99.90;;;;;;4995495;28;19988;-71
2021/05/10 10:52:48;;;;;;;;;;;18.40;99.90;;;;;;4995584;28;19910;-71
2021/05/10 10:55:18;;;;;;;;;;;18.50;99.90;;;;;;4999329;28;20262;-69
2021/05/10 10:57:45;;;;;;;;;;;18.50;99.90;;;;;;5002689;28;19910;-70
2021/05/10 11:00:17;;;;;;;;;;;18.40;99.90;;;;;;5000618;28;19981;-69
2021/05/10 11:02:46;;;;;;;;;;;18.40;99.90;;;;;;4995592;28;19910;-71
2021/05/10 11:05:16;;;;;;;;;;;18.40;99.90;;;;;;4995515;28;19918;-72
2021/05/10 11:07:45;;;;;;;;;;;18.40;99.90;;;;;;4995167;28;19910;-71
2021/05/10 11:10:12;;;;;;;;;;;18.40;99.90;;;;;;4994965;28;20371;-71
2021/05/10 11:12:56;;;;;;;;;;;18.40;99.90;;;;;;4994788;28;20198;-72
2021/05/10 11:15:35;;;;;;;;;;;18.30;99.90;;;;;;4995600;28;20399;-71
2021/05/10 11:18:03;;;;;;;;;;;18.30;99.90;;;;;;4995073;28;20000;-71
2021/05/10 11:20:39;;;;;;;;;;;18.30;99.90;;;;;;4995187;28;19917;-71
2021/05/10 11:23:32;;;;;;;;;;;18.30;99.90;;;;;;4995411;28;19978;-71
2021/05/10 11:26:04;;;;;;;;;;;18.20;99.90;;;;;;4991945;28;20368;-71
2021/05/10 11:28:36;;;;;;;;;;;18.10;99.90;;;;;;4995095;28;19921;-71
2021/05/10 11:31:04;;;;;;;;;;;18.20;99.90;;;;;;4994822;28;19920;-70
2021/05/10 11:33:49;;;;;;;;;;;18.20;99.90;;;;;;4994176;28;19921;-69
2021/05/10 11:36:25;;;;;;;;;;;18.20;99.90;;;;;;4994592;28;19929;-70
2021/05/10 11:38:56;;;;;;;;;;;18.20;99.90;;;;;;4994204;28;20030;-70
2021/05/10 11:41:36;;;;;;;;;;;18.20;99.90;;;;;;4993796;28;19909;-70
2021/05/10 11:44:04;;;;;;;;;;;18.10;99.90;;;;;;5006182;28;20279;-69
2021/05/10 11:46:33;;;;;;;;;;;18.10;99.90;;;;;;5011258;28;19913;-70
2021/05/10 11:49:00;;;;;;;;;;;18.00;99.90;;;;;;5010738;28;19968;-70
2021/05/10 11:51:27;;;;;;;;;;;18.00;99.90;;;;;;5011814;28;19917;-69
2021/05/10 11:53:57;;;;;;;;;;;17.90;99.90;;;;;;4994031;28;19920;-69
2021/05/10 11:56:27;;;;;;;;;;;17.90;99.90;;;;;;5010892;28;20000;-70
2021/05/10 11:59:00;;;;;;;;;;;17.80;99.90;;;;;;5011420;28;19913;-70
2021/05/10 12:01:39;;;;;;;;;;;17.80;99.90;;;;;;5011263;28;19913;-69
2021/05/10 12:04:23;;;;;;;;;;;17.80;99.90;;;;;;5011405;28;19999;-70
2021/05/10 12:06:51;;;;;;;;;;;17.90;99.90;;;;;;5011153;28;19963;-69
2021/05/10 12:09:37;;;;;;;;;;;17.90;99.90;;;;;;5011367;28;19914;-68
2021/05/10 12:12:06;;;;;;;;;;;17.90;99.90;;;;;;5010870;28;19968;-68
2021/05/10 12:14:33;;;;;;;;;;;17.90;99.90;;;;;;5010897;28;19913;-69
2021/05/10 12:17:00;;;;;;;;;;;17.90;99.90;;;;;;5010956;28;19913;-73
2021/05/10 12:19:47;;;;;;;;;;;17.90;99.90;;;;;;5011244;28;19913;-70
2021/05/10 12:22:13;;;;;;;;;;;17.90;99.90;;;;;;5011580;28;19995;-70
2021/05/10 12:25:00;;;;;;;;;;;17.90;99.90;;;;;;5013289;28;19917;-68
2021/05/10 12:27:36;;;;;;;;;;;17.80;99.90;;;;;;5001115;28;19920;-69
2021/05/10 12:30:18;;;;;;;;;;;17.70;99.90;;;;;;5013576;28;19917;-69
2021/05/10 12:32:46;;;;;;;;;;;17.70;99.90;;;;;;5011215;28;19910;-70
2021/05/10 12:35:13;;;;;;;;;;;17.80;99.90;;;;;;5011342;28;19913;-71
2021/05/10 12:37:50;;;;;;;;;;;17.80;99.90;;;;;;5011084;28;19917;-70
2021/05/10 12:40:18;;;;;;;;;;;17.80;99.90;;;;;;5010345;28;19914;-69
2021/05/10 12:43:01;;;;;;;;;;;17.80;99.90;;;;;;5009759;28;19956;-69
2021/05/10 12:45:28;;;;;;;;;;;17.80;99.90;;;;;;4994625;28;20005;-69
2021/05/10 12:47:56;;;;;;;;;;;17.80;99.90;;;;;;4995682;28;19913;-70
2021/05/10 12:50:33;;;;;;;;;;;17.80;99.90;;;;;;4995490;28;19913;-70
2021/05/10 12:53:04;;;;;;;;;;;17.80;99.90;;;;;;4994836;28;20037;-69
2021/05/10 12:55:35;;;;;;;;;;;17.80;99.90;;;;;;4995297;28;19917;-68
2021/05/10 12:58:18;;;;;;;;;;;17.70;99.90;;;;;;4995164;28;19913;-69
2021/05/10 13:00:47;;;;;;;;;;;17.70;99.90;;;;;;4995138;28;19910;-71
2021/05/10 13:03:33;;;;;;;;;;;17.80;99.90;;;;;;4995003;28;19941;-71
2021/05/10 13:06:01;;;;;;;;;;;17.70;99.90;;;;;;4994492;28;19918;-70
2021/05/10 13:08:48;;;;;;;;;;;17.70;99.90;;;;;;4994871;28;19913;-69
2021/05/10 13:11:42;;;;;;;;;;;17.60;99.90;;;;;;4994687;28;20360;-70
2021/05/10 13:14:20;;;;;;;;;;;17.50;99.90;;;;;;4992968;28;19910;-70
2021/05/10 13:33:31;;;;;;;;;;;17.50;99.90;;;;;;4994458;28;19910;-69
2021/05/10 13:36:03;;;;;;;;;;;17.50;99.90;;;;;;4994609;28;20383;-69
2021/05/10 13:38:33;;;;;;;;;;;17.60;99.90;;;;;;4994396;28;19917;-69
2021/05/10 13:41:04;;;;;;;;;;;17.60;99.90;;;;;;4994410;28;20388;-70
2021/05/10 13:43:37;;;;;;;;;;;17.70;99.90;;;;;;4994842;28;20277;-71
2021/05/10 13:46:06;;;;;;;;;;;17.70;99.90;;;;;;4994265;28;19918;-71
2021/05/10 13:48:34;;;;;;;;;;;17.70;99.90;;;;;;4994695;28;20050;-69
2021/05/10 13:51:01;;;;;;;;;;;17.70;99.90;;;;;;4976836;28;20002;-70
2021/05/10 13:53:27;;;;;;;;;;;17.80;99.90;;;;;;4994416;28;19910;-68
2021/05/10 13:55:57;;;;;;;;;;;17.80;99.90;;;;;;4994496;28;19916;-71
2021/05/10 13:58:26;;;;;;;;;;;17.80;99.90;;;;;;4993818;28;19910;-69
2021/05/10 14:00:54;;;;;;;;;;;17.70;99.90;;;;;;4994218;28;20578;-71
2021/05/10 14:03:20;;;;;;;;;;;17.70;99.90;;;;;;4994264;28;19921;-70
2021/05/10 14:05:47;;;;;;;;;;;17.70;99.90;;;;;;4994222;28;19922;-69
2021/05/10 14:08:13;;;;;;;;;;;17.70;99.90;;;;;;4993928;28;20280;-71
2021/05/10 14:10:42;;;;;;;;;;;17.70;99.90;;;;;;4993633;28;19910;-69
2021/05/10 14:13:09;;;;;;;;;;;17.70;99.90;;;;;;4993933;28;19917;-68
2021/05/10 14:15:38;;;;;;;;;;;17.70;99.90;;;;;;4992734;28;20000;-71
2021/05/10 14:18:09;;;;;;;;;;;17.60;99.90;;;;;;4976212;28;19945;-69
2021/05/10 14:23:21;;;;;;;;;;;17.60;99.90;;;;;;4994325;28;19917;-70
2021/05/10 14:25:47;;;;;;;;;;;17.60;99.90;;;;;;5002303;28;19929;-68
2021/05/10 14:28:14;;;;;;;;;;;17.60;99.90;;;;;;5010556;28;19914;-70
2021/05/10 14:30:40;;;;;;;;;;;17.60;99.90;;;;;;5012621;28;20158;-69
2021/05/10 14:33:07;;;;;;;;;;;17.50;99.90;;;;;;4996163;28;20257;-70
2021/05/10 14:35:36;;;;;;;;;;;17.60;99.90;;;;;;4993899;28;19910;-70
2021/05/10 14:38:03;;;;;;;;;;;17.50;99.90;;;;;;4993176;28;19933;-70
2021/05/10 14:40:29;;;;;;;;;;;17.50;99.90;;;;;;4993653;28;19913;-71
2021/05/10 14:42:57;;;;;;;;;;;17.50;99.90;;;;;;4993215;28;20028;-71
2021/05/10 14:45:24;;;;;;;;;;;17.40;99.90;;;;;;4993452;28;20385;-71
2021/05/10 14:47:51;;;;;;;;;;;17.50;99.90;;;;;;4993462;28;19921;-71
2021/05/10 14:50:17;;;;;;;;;;;17.50;99.90;;;;;;4993019;28;19914;-70